Latest Weather Observations for Mount Hotham Airport

IDV60801

Issued at 2:35 pm EST Thursday 28 August 2014 (issued every 30 minutes, with the page automatically refreshed every 10 minutes)

About weather observations | Map of weather stations | Latest weather observations for VIC | Other Formats
Station Details ID: 083055 Name: MOUNT HOTHAM AIRPORT Lat: -37.05 Lon: 147.33 Height: 1295.4 m
Data from the previous 72 hours. | See also: Recent months at Mount Hotham Airport
Date/Time
EST
Temp
°C
App
Temp
°C
Dew
Point
Rel
Hum
%
Delta-T
°C
Wind Press
QNH
hPa
Press
MSL
hPa
Rain
since 9 am
mm
Dir
 
Spd
km/h
Gust
km/h
Spd
kts
Gust
kts
28/02:30pm 12.2 6.1 -7.7 24 7.4 S 17 20 9 11 1027.4 - 0.0
28/02:00pm 12.6 7.7 -6.9 25 7.4 SSW 11 19 6 10 1027.5 - 0.0
28/01:30pm 12.8 7.7 -5.2 28 7.2 SSW 13 17 7 9 1027.7 - 0.0
28/01:00pm 12.1 7.2 -7.3 25 7.3 SSW 11 17 6 9 1027.9 - 0.0
28/12:30pm 11.7 7.6 -2.9 36 6.1 S 9 17 5 9 1028.2 - 0.0
28/12:00pm 11.6 7.8 -3.7 34 6.2 SSE 7 13 4 7 1028.3 1032.0 0.0
28/11:30am 10.9 6.0 -7.3 27 6.8 SSE 11 19 6 10 1028.7 - 0.0
28/11:00am 10.0 4.7 -7.6 28 6.4 S 13 19 7 10 1029.0 - 0.0
28/10:30am 10.1 6.6 -2.9 40 5.3 SSE 6 13 3 7 1029.1 - 0.0
28/09:30am 9.1 5.8 -4.1 39 5.2 E 4 7 2 4 1029.4 - 0.0
28/08:30am 5.4 2.5 -0.8 64 2.5 NW 4 6 2 3 1029.4 - 0.0
28/08:00am 2.8 0.6 1.3 90 0.6 W 2 2 1 1 1029.2 - 0.0
28/07:30am 0.1 -2.3 -2.9 80 1.1 CALM 0 0 0 0 1028.9 - 0.0
28/07:00am -2.4 -5.4 -5.4 80 0.9 SSW 2 4 1 2 1028.6 - 0.0
28/06:30am -3.3 -6.8 -6.1 81 0.8 WNW 4 6 2 3 1028.3 - 0.0
28/06:00am -1.9 -5.2 -4.7 81 0.9 W 4 4 2 2 1028.1 1031.7 0.0
28/05:30am -2.7 -6.3 -3.4 95 0.1 W 6 6 3 3 1028.1 - 0.0
28/05:00am -2.2 -5.3 -2.3 99 -0.1 NW 4 4 2 2 1027.8 - 0.0
28/04:30am -0.9 -4.2 -1.0 99 0.0 WNW 6 7 3 4 1027.8 - 0.0
28/04:00am -0.6 -3.8 -0.7 99 0.0 NW 6 7 3 4 1027.8 - 0.0
28/03:30am -0.5 -3.7 -0.6 99 0.0 WNW 6 7 3 4 1028.0 - 0.0
28/03:00am -1.1 -4.0 -1.2 99 0.0 WNW 4 7 2 4 1028.0 1031.6 0.0
28/02:59am -1.2 -4.1 -1.3 99 0.0 WNW 4 6 2 3 1028.0 - 0.0
28/02:30am 0.3 -2.4 0.2 99 0.0 W 4 6 2 3 1028.0 - 0.0
28/02:00am -1.9 -4.9 -2.0 99 -0.1 W 4 6 2 3 1028.0 - 0.0
28/01:30am -0.8 -3.7 -0.9 99 0.0 NW 4 6 2 3 1028.0 - 0.0
28/01:00am -0.8 -3.7 -0.9 99 0.0 WNW 4 6 2 3 1028.2 - 0.0
28/12:30am 0.5 -2.6 0.4 99 0.0 W 6 7 3 4 1028.2 - 0.0
 
Date/Time
EST
Temp
°C
App
Temp
°C
Dew
Point
Rel
Hum
%
Delta-T
°C
Wind Press
QNH
hPa
Press
MSL
hPa
Rain
since 9 am
mm
Dir
 
Spd
km/h
Gust
km/h
Spd
kts
Gust
kts
27/11:30pm 0.9 -1.7 0.8 99 0.0 WNW 4 6 2 3 1028.2 - 0.0
27/11:21pm -0.1 -2.9 -0.2 99 0.0 NW 4 6 2 3 1028.4 - 0.0
27/11:00pm 1.6 -1.3 1.5 99 0.0 W 6 6 3 3 1028.3 - 0.0
27/10:30pm 0.8 -2.2 0.7 99 0.0 NNW 6 7 3 4 1028.4 - 0.0
27/10:00pm 1.9 -0.2 1.8 99 0.0 WNW 2 4 1 2 1028.6 - 0.0
27/09:30pm 2.4 0.0 2.3 99 0.0 NW 4 6 2 3 1028.7 - 0.0
27/09:00pm 2.4 0.4 2.1 98 0.1 SW 2 6 1 3 1028.6 1032.2 0.0
27/08:30pm 1.7 -0.5 1.0 95 0.3 SW 2 4 1 2 1028.7 - 0.0
27/08:00pm 1.3 -1.4 0.0 91 0.5 W 4 6 2 3 1028.6 - 0.0
27/07:30pm 1.8 -0.6 -0.4 85 0.9 NW 2 4 1 2 1028.4 - 0.0
27/07:00pm 2.6 -0.1 0.5 86 0.9 S 4 7 2 4 1028.3 - 0.0
27/06:30pm 3.7 1.8 0.6 80 1.3 CALM 0 2 0 1 1028.1 - 0.0
27/06:00pm 4.9 1.3 0.3 72 1.9 SE 9 13 5 7 1027.8 1031.4 0.0
27/05:30pm 6.6 2.2 0.5 65 2.6 SE 13 19 7 10 1027.7 - 0.0
27/05:00pm 8.3 4.4 1.0 60 3.2 ESE 11 17 6 9 1027.4 - 0.0
27/04:30pm 9.1 5.6 1.0 57 3.6 SE 9 15 5 8 1027.2 - 0.0
27/04:00pm 9.0 4.2 0.5 55 3.7 ESE 15 20 8 11 1027.1 - 0.0
27/03:30pm 10.4 5.5 -0.7 46 4.8 ESE 15 20 8 11 1027.0 - 0.0
27/03:00pm 10.8 6.0 -2.2 40 5.4 E 13 20 7 11 1027.0 1030.6 0.0
27/02:30pm 11.2 6.3 -3.7 35 6.0 ESE 13 22 7 12 1027.1 - 0.0
27/02:00pm 10.9 5.7 -6.0 30 6.5 ESE 13 20 7 11 1027.1 - 0.0
27/01:30pm 10.8 5.2 -6.1 30 6.5 E 15 20 8 11 1027.1 - 0.0
27/01:00pm 11.1 5.9 -6.7 28 6.7 ESE 13 22 7 12 1027.1 - 0.0
27/12:30pm 11.1 5.6 -5.4 31 6.4 ESE 15 24 8 13 1027.3 - 0.0
27/12:00pm 10.6 6.1 -3.1 38 5.6 ESE 11 19 6 10 1027.5 1031.2 0.0
27/11:30am 10.8 6.5 -1.3 43 5.2 E 11 17 6 9 1027.9 - 0.0
27/11:00am 9.7 5.7 -2.3 43 4.9 E 9 15 5 8 1028.1 - 0.0
27/10:30am 9.5 5.7 -0.4 50 4.3 S 9 15 5 8 1028.1 - 0.0
27/10:00am 8.4 4.3 -3.1 44 4.6 SSW 9 13 5 7 1028.2 - 0.0
27/09:30am 7.7 3.4 -1.8 51 3.9 S 11 17 6 9 1028.1 - 0.0
27/09:00am 6.9 3.3 0.4 63 2.8 SSW 9 13 5 7 1028.1 1031.7 0.0
27/08:30am 5.4 1.4 0.8 72 2.0 S 11 17 6 9 1027.9 - 0.0
27/08:00am 4.0 1.4 3.0 93 0.4 S 6 7 3 4 1027.8 - 0.0
27/07:30am 1.1 -1.5 1.0 99 0.0 S 4 6 2 3 1027.4 - 0.0
27/07:00am -1.2 -3.7 -1.3 99 0.0 WNW 2 4 1 2 1027.1 - 0.0
27/06:30am -1.1 -3.3 -1.2 99 0.0 CALM 0 4 0 2 1026.7 - 0.0
27/06:00am -1.1 -4.4 -1.2 99 0.0 NW 6 7 3 4 1026.6 1030.2 0.0
27/05:30am 0.0 -3.1 -0.1 99 0.0 NW 6 7 3 4 1026.5 - 0.0
27/05:00am 0.5 -2.6 0.4 99 0.0 WNW 6 6 3 3 1026.5 - 0.0
27/04:30am 0.9 -1.7 0.8 99 0.0 WNW 4 4 2 2 1026.6 - 0.0
27/04:00am 0.0 -2.8 -0.1 99 0.0 WNW 4 4 2 2 1026.9 - 0.0
27/03:30am 0.1 -2.3 0.0 99 0.0 NNW 2 4 1 2 1027.0 - 0.0
27/03:00am 0.6 -2.1 0.5 99 0.0 W 4 6 2 3 1027.1 1030.7 0.0
27/02:30am 0.2 -2.5 0.1 99 0.0 WNW 4 6 2 3 1027.3 - 0.0
27/02:00am -0.7 -4.1 -0.8 99 0.0 N 7 7 4 4 1027.4 - 0.0
27/01:30am 2.4 -0.4 2.3 99 0.0 NNW 6 7 3 4 1027.5 - 0.0
27/01:00am 2.2 -0.8 2.1 99 0.0 NNW 7 7 4 4 1027.8 - 0.0
27/12:30am 1.0 -1.6 0.9 99 0.0 NW 4 4 2 2 1028.0 - 0.0
27/12:00am 1.7 -1.7 1.6 99 0.0 ENE 9 11 5 6 1028.0 1031.6 0.0
 
Date/Time
EST
Temp
°C
App
Temp
°C
Dew
Point
Rel
Hum
%
Delta-T
°C
Wind Press
QNH
hPa
Press
MSL
hPa
Rain
since 9 am
mm
Dir
 
Spd
km/h
Gust
km/h
Spd
kts
Gust
kts
26/11:30pm 3.5 0.9 3.4 99 0.0 NNW 6 6 3 3 1028.2 - 0.0
26/11:00pm 3.7 1.5 3.6 99 0.0 NNE 4 7 2 4 1028.2 - 0.0
26/10:30pm 4.4 2.0 4.3 99 0.0 NE 6 13 3 7 1028.3 - 0.0
26/10:23pm 4.1 2.4 4.0 99 0.0 NE 2 6 1 3 1028.4 - 0.0
26/10:00pm 3.2 1.3 3.1 99 0.0 NE 2 6 1 3 1028.4 - 0.0
26/09:33pm 3.9 1.4 3.8 99 0.0 SSE 6 7 3 4 1028.6 - 0.0
26/09:30pm 3.9 1.4 3.8 99 0.0 SSE 6 7 3 4 1028.4 - 0.0
26/09:00pm 4.9 2.6 4.8 99 0.0 SSE 6 6 3 3 1028.3 1032.0 0.0
26/08:30pm 4.9 3.0 4.8 99 0.0 ESE 4 6 2 3 1028.2 - 0.0
26/08:04pm 4.0 1.9 3.9 99 0.0 E 4 7 2 4 1028.1 - 0.0
26/08:00pm 3.8 2.0 3.7 99 0.0 ENE 2 6 1 3 1028.0 - 0.0
26/07:30pm 3.7 1.8 3.1 96 0.3 ESE 2 6 1 3 1027.9 - 0.0
26/07:00pm 5.0 2.0 4.0 93 0.5 SE 9 13 5 7 1027.9 - 0.0
26/06:30pm 4.6 1.7 2.8 88 0.8 SE 7 11 4 6 1027.5 - 0.0
26/06:00pm 5.4 2.5 2.6 82 1.2 ESE 7 11 4 6 1027.4 1031.0 0.0
26/05:30pm 7.3 4.5 3.4 76 1.8 SE 7 11 4 6 1027.2 - 0.0
26/05:00pm 7.5 3.9 3.2 74 2.0 SE 11 15 6 8 1027.1 - 0.0
26/04:30pm 8.6 5.5 3.4 70 2.4 ESE 9 13 5 7 1026.9 - 0.0
26/04:00pm 8.4 4.1 3.5 71 2.3 ESE 15 20 8 11 1026.9 - 0.0
26/03:30pm 9.9 6.0 3.4 64 3.1 ESE 13 22 7 12 1026.6 - 0.0
26/03:00pm 9.2 4.3 1.9 60 3.3 SE 17 24 9 13 1026.6 1030.2 0.0
26/02:30pm 10.4 5.7 3.0 60 3.5 E 17 22 9 12 1026.6 - 0.0
26/02:00pm 9.6 5.0 1.8 58 3.5 E 15 22 8 12 1026.7 - 0.0
26/01:30pm 9.2 4.0 2.5 63 3.1 ESE 19 28 10 15 1026.9 - 0.0
26/01:00pm 9.4 4.7 3.2 65 2.9 ESE 17 22 9 12 1027.2 - 0.0
26/12:30pm 8.5 3.1 2.7 67 2.7 ESE 20 30 11 16 1027.5 - 0.0
26/12:00pm 7.4 2.7 2.9 73 2.0 ESE 17 26 9 14 1027.9 1031.5 0.0
26/11:30am 7.9 3.2 3.4 73 2.1 ESE 17 28 9 15 1028.0 - 0.0
26/11:25am 8.2 3.0 3.3 71 2.3 E 20 30 11 16 1028.0 - 0.0
26/11:14am 7.1 2.4 3.3 77 1.7 ESE 17 22 9 12 1028.0 - 0.0
26/11:00am 7.3 2.3 3.5 77 1.8 ESE 19 28 10 15 1028.2 - 0.0
26/10:30am 7.1 2.4 5.3 88 0.9 ESE 19 30 10 16 1028.3 - 0.0
26/10:00am 5.9 1.7 5.8 99 0.0 ESE 17 24 9 13 1028.6 - 0.0
26/09:30am 5.5 1.6 5.4 99 0.0 ESE 15 22 8 12 1028.6 - 0.0
26/09:16am 5.3 1.0 5.2 99 0.0 ESE 17 22 9 12 1028.4 - 0.0
26/09:00am 5.0 1.0 4.9 99 0.0 ESE 15 22 8 12 1028.3 1032.0 0.0
26/08:30am 4.6 0.5 4.5 99 0.0 ESE 15 20 8 11 1028.2 - 0.0
26/08:00am 4.2 0.8 4.1 99 0.0 SE 11 17 6 9 1028.1 - 0.0
26/07:30am 4.0 -0.6 3.9 99 0.0 ESE 17 22 9 12 1027.9 - 0.0
26/07:00am 3.9 -0.7 3.8 99 0.0 ESE 17 24 9 13 1027.5 - 0.0
26/06:30am 3.8 -0.8 3.7 99 0.0 E 17 28 9 15 1027.2 - 0.0
26/06:00am 3.8 0.0 3.7 99 0.0 ESE 13 19 7 10 1027.0 1030.6 0.0
26/05:30am 3.8 -0.4 3.7 99 0.0 SE 15 22 8 12 1027.0 - 0.0
26/05:00am 3.7 -0.2 3.6 99 0.0 SE 13 20 7 11 1026.9 - 0.0
26/04:30am 3.6 -0.7 3.5 99 0.0 SE 15 22 8 12 1026.7 - 0.0
26/04:00am 3.7 -0.2 3.6 99 0.0 ESE 13 19 7 10 1026.6 - 0.0
26/03:30am 3.7 -0.2 3.6 99 0.0 ESE 13 20 7 11 1026.7 - 0.0
26/03:00am 3.8 -0.4 3.7 99 0.0 ESE 15 22 8 12 1026.6 1030.2 0.0
26/02:30am 3.7 0.6 3.6 99 0.0 ESE 9 17 5 9 1026.7 - 0.0
26/02:00am 3.6 0.1 3.5 99 0.0 SE 11 17 6 9 1026.9 - 0.0
26/01:30am 3.6 -0.3 3.5 99 0.0 SE 13 19 7 10 1027.1 - 0.0
26/01:00am 3.5 0.4 3.4 99 0.0 ESE 9 17 5 9 1027.3 - 0.0
26/12:57am 3.5 0.4 3.4 99 0.0 ESE 9 15 5 8 1027.3 - 0.0
26/12:30am 3.5 0.4 3.4 99 0.0 SE 9 13 5 7 1027.2 - 0.0
26/12:00am 3.4 0.6 3.3 99 0.0 SE 7 9 4 5 1027.3 1030.9 0.0
 
Date/Time
EST
Temp
°C
App
Temp
°C
Dew
Point
Rel
Hum
%
Delta-T
°C
Wind Press
QNH
hPa
Press
MSL
hPa
Rain
since 9 am
mm
Dir
 
Spd
km/h
Gust
km/h
Spd
kts
Gust
kts
25/11:30pm 3.4 -0.1 3.3 99 0.0 ESE 11 15 6 8 1027.3 - 0.0
25/11:00pm 3.3 -0.6 3.2 99 0.0 SE 13 19 7 10 1027.1 - 0.0
25/10:30pm 3.1 -0.5 3.0 99 0.0 SE 11 15 6 8 1027.0 - 0.0
25/10:00pm 3.3 0.1 3.2 99 0.0 SE 9 15 5 8 1027.2 - 0.0
25/09:39pm 3.3 0.1 3.2 99 0.0 ESE 9 15 5 8 1027.3 - 0.0
25/09:30pm 3.3 0.1 3.2 99 0.0 SE 9 15 5 8 1027.3 - 0.0
25/09:23pm 3.3 0.5 3.2 99 0.0 SE 7 11 4 6 1027.3 - 0.0
25/09:00pm 3.2 0.0 3.1 99 0.0 SE 9 15 5 8 1027.2 1030.8 0.0
25/08:30pm 3.1 -0.1 3.0 99 0.0 SE 9 17 5 9 1027.1 - 0.0
25/08:00pm 3.0 -0.6 2.7 98 0.1 SE 11 17 6 9 1026.9 - 0.0
25/07:30pm 2.9 -1.2 2.3 96 0.3 SE 13 19 7 10 1026.9 - 0.0
25/07:00pm 3.7 -0.7 2.8 94 0.4 SE 15 24 8 13 1026.6 - 0.0
25/06:30pm 4.0 -0.4 2.7 91 0.6 SE 15 19 8 10 1026.4 - 0.0
25/06:00pm 4.4 0.3 2.3 86 0.9 SE 13 20 7 11 1026.1 1029.6 0.0
25/05:30pm 4.6 0.9 2.5 86 0.9 S 11 17 6 9 1025.6 - 0.0
25/05:00pm 5.0 0.8 1.7 79 1.4 SSE 13 15 7 8 1025.2 - 0.0
25/04:30pm 5.1 -0.2 1.8 79 1.4 SE 19 28 10 15 1025.0 - 0.0
25/04:00pm 5.8 0.2 1.2 72 2.0 ESE 20 30 11 16 1024.8 - 0.0
25/03:30pm 6.2 0.7 0.7 68 2.4 SE 19 28 10 15 1024.8 - 0.0
25/03:00pm 6.5 2.3 1.8 72 2.1 SE 13 19 7 10 1024.7 1028.2 0.0

Other Formats:

Comma delimited format used in spreadsheet applications
http://www.bom.gov.au/fwo/IDV60801/IDV60801.94905.axf

JavaScript Object Notation format (JSON) in row-major order
http://www.bom.gov.au/fwo/IDV60801/IDV60801.94905.json